createdAt,value
2022-07-29T00:02:04.980Z,17.82
2022-07-29T00:04:31.550Z,17.80
2022-07-29T00:06:58.088Z,17.60
2022-07-29T00:09:24.544Z,17.55
2022-07-29T00:11:51.005Z,17.65
2022-07-29T00:14:17.598Z,17.54
2022-07-29T00:16:44.371Z,17.53
2022-07-29T00:19:10.828Z,17.40
2022-07-29T00:21:37.406Z,17.57
2022-07-29T00:24:04.036Z,17.48
2022-07-29T00:26:32.608Z,17.51
2022-07-29T00:29:32.493Z,17.62
2022-07-29T00:31:50.986Z,17.57
2022-07-29T00:34:36.336Z,17.57
2022-07-29T00:37:02.809Z,17.51
2022-07-29T00:39:29.227Z,17.41
2022-07-29T00:41:55.641Z,17.44
2022-07-29T00:44:22.100Z,17.38
2022-07-29T00:46:48.603Z,17.40
2022-07-29T00:49:15.121Z,17.39
2022-07-29T00:51:41.691Z,17.25
2022-07-29T00:54:08.304Z,17.27
2022-07-29T00:56:34.884Z,17.33
2022-07-29T00:59:01.365Z,17.42
2022-07-29T01:01:28.382Z,17.42
2022-07-29T01:03:55.070Z,17.35
2022-07-29T01:06:21.564Z,17.36
2022-07-29T01:08:49.018Z,17.25
2022-07-29T01:11:16.881Z,17.13
2022-07-29T01:13:44.700Z,17.15
2022-07-29T01:16:22.679Z,17.22
2022-07-29T01:18:51.244Z,17.26
2022-07-29T01:21:51.805Z,17.09
2022-07-29T01:24:18.589Z,17.00
2022-07-29T01:26:58.461Z,17.18
2022-07-29T01:29:42.823Z,17.04
2022-07-29T01:32:29.007Z,17.16
2022-07-29T01:34:59.884Z,17.07
2022-07-29T01:37:51.707Z,16.98
2022-07-29T01:40:27.196Z,17.01
2022-07-29T01:42:56.736Z,16.99
2022-07-29T01:45:38.408Z,16.80
2022-07-29T01:48:11.615Z,16.92
2022-07-29T01:50:46.472Z,16.81
2022-07-29T01:53:15.751Z,16.86
2022-07-29T01:55:45.706Z,16.84
2022-07-29T01:58:13.103Z,16.79
2022-07-29T02:00:40.270Z,16.76
2022-07-29T02:03:12.576Z,16.66
2022-07-29T02:05:40.284Z,16.66
2022-07-29T02:08:07.569Z,16.62
2022-07-29T02:10:34.992Z,16.76
2022-07-29T02:13:03.143Z,16.65
2022-07-29T02:15:31.920Z,16.66
2022-07-29T02:18:03.238Z,16.69
2022-07-29T02:20:30.246Z,16.70
2022-07-29T02:22:56.919Z,16.64
2022-07-29T02:25:24.390Z,16.73
2022-07-29T02:27:52.174Z,16.82
2022-07-29T02:30:19.508Z,16.87
2022-07-29T02:32:47.081Z,16.78
2022-07-29T02:35:15.216Z,16.81
2022-07-29T02:37:42.580Z,16.71
2022-07-29T02:40:12.083Z,16.78
2022-07-29T02:42:40.055Z,16.91
2022-07-29T02:45:07.742Z,16.89
2022-07-29T02:47:41.764Z,16.89
2022-07-29T02:50:31.809Z,16.79
2022-07-29T02:53:19.204Z,16.85
2022-07-29T02:56:07.759Z,16.84
2022-07-29T02:58:43.882Z,16.95
2022-07-29T03:01:19.329Z,16.65
2022-07-29T03:03:50.279Z,16.89
2022-07-29T03:06:28.031Z,16.84
2022-07-29T03:09:07.766Z,16.89
2022-07-29T03:11:45.977Z,16.82
2022-07-29T03:14:18.508Z,16.92
2022-07-29T03:16:45.411Z,16.91
2022-07-29T03:19:12.012Z,16.93
2022-07-29T03:21:38.419Z,16.85
2022-07-29T03:24:10.079Z,16.84
2022-07-29T03:26:37.096Z,16.83
2022-07-29T03:29:03.536Z,16.91
2022-07-29T03:31:30.061Z,16.77
2022-07-29T03:33:56.696Z,16.84
2022-07-29T03:36:23.137Z,16.78
2022-07-29T03:38:50.179Z,16.85
2022-07-29T03:41:17.465Z,16.85
2022-07-29T03:43:50.709Z,16.73
2022-07-29T03:46:18.374Z,16.83
2022-07-29T03:48:47.889Z,16.83
2022-07-29T03:51:14.523Z,16.84
2022-07-29T03:53:41.058Z,16.83
2022-07-29T03:56:07.926Z,16.77
2022-07-29T03:58:34.490Z,16.82
2022-07-29T04:01:01.053Z,16.72
2022-07-29T04:03:27.536Z,16.81
2022-07-29T04:06:06.898Z,16.70
2022-07-29T04:08:36.559Z,16.65
2022-07-29T04:11:03.344Z,16.51
2022-07-29T04:13:30.051Z,16.72
2022-07-29T04:15:56.693Z,16.74
2022-07-29T04:18:23.346Z,16.76
2022-07-29T04:20:49.914Z,16.70
2022-07-29T04:23:16.463Z,16.78
2022-07-29T04:25:43.578Z,16.81
2022-07-29T04:28:10.836Z,16.81
2022-07-29T04:30:38.257Z,16.76
2022-07-29T04:33:06.313Z,16.73
2022-07-29T04:35:38.079Z,16.76
2022-07-29T04:38:06.446Z,16.67
2022-07-29T04:40:34.014Z,16.66
2022-07-29T04:43:02.053Z,16.69
2022-07-29T04:45:32.254Z,16.76
2022-07-29T04:47:58.697Z,16.84
2022-07-29T04:50:25.196Z,16.86
2022-07-29T04:52:51.678Z,16.85
2022-07-29T04:55:18.141Z,16.84
2022-07-29T04:57:44.573Z,16.86
2022-07-29T05:00:11.582Z,16.96
2022-07-29T05:02:38.052Z,16.89
2022-07-29T05:05:04.908Z,16.98
2022-07-29T05:07:31.385Z,16.76
2022-07-29T05:09:57.967Z,17.03
2022-07-29T05:12:25.510Z,16.97
2022-07-29T05:14:52.252Z,16.86
2022-07-29T05:17:19.006Z,16.77
2022-07-29T05:19:45.586Z,17.03
2022-07-29T05:22:12.018Z,16.98
2022-07-29T05:24:38.419Z,16.95
2022-07-29T05:27:05.325Z,17.02
2022-07-29T05:29:44.268Z,17.08
2022-07-29T05:32:12.975Z,17.08
2022-07-29T05:34:50.145Z,17.23
2022-07-29T05:37:19.388Z,17.16
2022-07-29T05:39:48.609Z,17.11
2022-07-29T05:42:15.820Z,17.32
2022-07-29T05:44:42.227Z,17.26
2022-07-29T05:47:08.799Z,17.33
2022-07-29T05:49:35.318Z,17.23
2022-07-29T05:52:01.836Z,17.33
2022-07-29T05:54:28.235Z,17.07
2022-07-29T05:56:54.647Z,17.12
2022-07-29T05:59:21.056Z,17.36
2022-07-29T06:01:47.621Z,17.10
2022-07-29T06:04:14.555Z,17.20
2022-07-29T06:06:41.287Z,17.05
2022-07-29T06:09:12.575Z,17.24
2022-07-29T06:11:39.483Z,17.08
2022-07-29T06:14:06.050Z,17.35
2022-07-29T06:16:32.624Z,17.19
2022-07-29T06:18:59.183Z,17.24
2022-07-29T06:21:25.745Z,17.31
2022-07-29T06:23:52.413Z,17.37
2022-07-29T06:26:18.836Z,17.41
2022-07-29T06:28:57.304Z,17.49
2022-07-29T06:31:23.789Z,17.44
2022-07-29T06:33:50.220Z,17.75
2022-07-29T06:36:16.793Z,17.82
2022-07-29T06:38:49.181Z,17.72
2022-07-29T06:41:17.204Z,17.59
2022-07-29T06:43:52.079Z,17.67
2022-07-29T06:46:22.932Z,17.84
2022-07-29T06:48:49.864Z,17.68
2022-07-29T06:51:17.216Z,17.53
2022-07-29T06:54:01.621Z,17.94
2022-07-29T06:56:40.112Z,17.99
2022-07-29T06:59:08.206Z,17.71
2022-07-29T07:01:34.811Z,18.13
2022-07-29T07:04:01.334Z,18.23
2022-07-29T07:06:28.364Z,18.27
2022-07-29T07:08:54.877Z,18.34
2022-07-29T07:11:21.525Z,18.46
2022-07-29T07:13:47.943Z,18.53
2022-07-29T07:16:14.452Z,18.67
2022-07-29T07:18:41.426Z,18.77
2022-07-29T07:21:07.886Z,18.59
2022-07-29T07:23:34.296Z,18.60
2022-07-29T07:26:00.696Z,18.65
2022-07-29T07:28:27.168Z,18.81
2022-07-29T07:30:53.602Z,18.72
2022-07-29T07:33:20.251Z,18.73
2022-07-29T07:35:46.874Z,18.64
2022-07-29T07:38:13.576Z,18.96
2022-07-29T07:40:40.016Z,19.15
2022-07-29T07:43:06.491Z,19.26
2022-07-29T07:45:37.874Z,19.21
2022-07-29T07:48:04.702Z,19.23
2022-07-29T07:50:31.186Z,19.53
2022-07-29T07:52:58.849Z,19.23
2022-07-29T07:55:26.485Z,19.50
2022-07-29T07:57:52.919Z,19.33
2022-07-29T08:00:19.723Z,19.25
2022-07-29T08:02:49.570Z,19.67
2022-07-29T08:05:17.964Z,20.15
2022-07-29T08:07:46.132Z,20.18
2022-07-29T08:10:13.344Z,20.64
2022-07-29T08:12:39.806Z,20.85
2022-07-29T08:15:08.565Z,21.07
2022-07-29T08:17:35.407Z,20.88
2022-07-29T08:20:02.034Z,21.09
2022-07-29T08:22:29.455Z,21.19
2022-07-29T08:24:57.000Z,21.42
2022-07-29T08:27:42.344Z,20.92
2022-07-29T08:30:09.390Z,21.24
2022-07-29T08:35:23.918Z,21.18
2022-07-29T08:37:50.420Z,21.25
2022-07-29T08:40:17.009Z,21.10
2022-07-29T08:42:43.488Z,20.73
2022-07-29T08:45:10.375Z,20.99
2022-07-29T08:47:40.649Z,21.22
2022-07-29T08:50:11.009Z,21.15
2022-07-29T08:52:39.694Z,21.29
2022-07-29T08:55:08.414Z,21.44
2022-07-29T08:57:35.456Z,21.18
2022-07-29T09:00:11.599Z,21.18
2022-07-29T09:02:46.659Z,20.93
2022-07-29T09:05:13.961Z,21.41
2022-07-29T09:07:42.764Z,21.64
2022-07-29T09:10:09.503Z,21.89
2022-07-29T09:12:37.986Z,21.83
2022-07-29T09:15:04.867Z,21.96
2022-07-29T09:17:50.172Z,21.92
2022-07-29T09:20:19.249Z,21.96
2022-07-29T09:22:50.001Z,22.05
2022-07-29T09:25:33.593Z,22.02
2022-07-29T09:28:07.251Z,22.37
2022-07-29T09:30:34.284Z,22.62
2022-07-29T09:33:03.715Z,22.98
2022-07-29T09:35:30.765Z,23.22
2022-07-29T09:37:57.485Z,23.59
2022-07-29T09:40:25.950Z,24.18
2022-07-29T09:42:53.721Z,24.53
2022-07-29T09:45:35.515Z,25.04
2022-07-29T09:48:23.497Z,25.58
2022-07-29T09:50:50.698Z,25.45
2022-07-29T09:53:38.044Z,25.72
2022-07-29T09:56:05.809Z,26.14
2022-07-29T09:58:34.558Z,26.67
2022-07-29T10:01:01.063Z,26.65
2022-07-29T10:03:27.668Z,26.56
2022-07-29T10:06:11.409Z,26.19
2022-07-29T10:08:38.562Z,26.90
2022-07-29T10:11:13.491Z,26.71
2022-07-29T10:13:41.696Z,26.69
2022-07-29T10:16:08.247Z,27.13
2022-07-29T10:18:35.177Z,27.37
2022-07-29T10:21:02.212Z,27.58
2022-07-29T10:23:29.628Z,26.81
2022-07-29T10:26:13.006Z,26.97
2022-07-29T10:28:39.437Z,27.17
2022-07-29T10:31:07.543Z,26.95
2022-07-29T10:34:12.543Z,27.29
2022-07-29T10:36:51.531Z,27.32
2022-07-29T10:39:49.561Z,27.54
2022-07-29T10:42:29.564Z,27.71
2022-07-29T10:45:00.916Z,27.89
2022-07-29T10:47:28.011Z,28.10
2022-07-29T10:49:59.180Z,27.77
2022-07-29T10:52:53.702Z,27.80
2022-07-29T10:55:37.603Z,27.55
2022-07-29T10:58:15.720Z,27.53
2022-07-29T11:00:45.407Z,27.84
2022-07-29T11:03:49.719Z,27.23
2022-07-29T11:06:18.039Z,27.75
2022-07-29T11:09:19.951Z,27.35
2022-07-29T11:11:51.324Z,27.28
2022-07-29T11:14:19.792Z,26.57
2022-07-29T11:17:01.650Z,26.23
2022-07-29T11:19:30.860Z,26.26
2022-07-29T11:22:00.466Z,26.30
2022-07-29T11:24:31.890Z,25.95
2022-07-29T11:27:08.704Z,25.71
2022-07-29T11:29:40.033Z,26.08
2022-07-29T11:32:15.848Z,25.55
2022-07-29T11:34:49.850Z,25.84
2022-07-29T11:40:07.923Z,24.94
2022-07-29T11:42:35.406Z,25.28
2022-07-29T11:45:44.273Z,25.17
2022-07-29T11:48:29.080Z,25.23
2022-07-29T11:50:51.593Z,24.89
2022-07-29T11:53:18.517Z,24.68
2022-07-29T11:55:51.559Z,24.82
2022-07-29T11:58:24.994Z,24.90
2022-07-29T12:00:52.049Z,24.94
2022-07-29T12:03:33.275Z,24.64
2022-07-29T12:06:04.054Z,24.77
2022-07-29T12:07:03.868Z,25.40
2022-07-29T12:08:30.704Z,24.90
2022-07-29T12:10:57.153Z,24.95
2022-07-29T12:13:36.997Z,25.35
2022-07-29T12:16:05.049Z,25.33
2022-07-29T12:18:32.370Z,25.44
2022-07-29T12:21:03.081Z,25.48
2022-07-29T12:23:35.019Z,25.53
2022-07-29T12:26:05.172Z,25.47
2022-07-29T12:28:38.509Z,25.56
2022-07-29T12:31:05.683Z,25.89
2022-07-29T12:33:32.301Z,26.07
2022-07-29T12:36:11.764Z,26.07
2022-07-29T12:38:44.004Z,26.64
2022-07-29T12:41:11.351Z,27.06
2022-07-29T12:43:37.787Z,27.76
2022-07-29T12:46:15.083Z,28.12
2022-07-29T12:48:43.699Z,28.12
2022-07-29T12:51:12.441Z,27.31
2022-07-29T12:53:39.624Z,27.69
2022-07-29T12:56:20.570Z,27.98
2022-07-29T12:58:52.952Z,28.21
2022-07-29T13:01:20.928Z,28.44
2022-07-29T13:04:04.987Z,28.67
2022-07-29T13:06:34.125Z,29.72
2022-07-29T13:09:18.806Z,29.88
2022-07-29T13:11:48.834Z,29.65
2022-07-29T13:14:34.833Z,29.75
2022-07-29T13:17:20.163Z,30.04
2022-07-29T13:19:53.869Z,30.59
2022-07-29T13:22:24.964Z,30.71
2022-07-29T13:24:58.538Z,30.31
2022-07-29T13:27:30.000Z,31.06
2022-07-29T13:29:58.587Z,30.97
2022-07-29T13:32:28.728Z,31.33
2022-07-29T13:35:01.003Z,30.76
2022-07-29T13:37:30.512Z,31.52
2022-07-29T13:39:57.649Z,30.57
2022-07-29T13:42:24.621Z,31.35
2022-07-29T13:44:52.537Z,31.44
2022-07-29T13:47:19.985Z,32.06
2022-07-29T13:49:46.486Z,32.10
2022-07-29T13:52:12.966Z,32.80
2022-07-29T13:54:42.278Z,32.48
2022-07-29T13:57:09.684Z,32.28
2022-07-29T13:59:36.125Z,31.24
2022-07-29T14:02:02.977Z,32.23
2022-07-29T14:04:29.504Z,32.56
2022-07-29T14:06:55.962Z,32.75
2022-07-29T14:09:22.423Z,32.20
2022-07-29T14:11:50.635Z,33.00
2022-07-29T14:14:17.220Z,32.66
2022-07-29T14:16:47.713Z,32.69
2022-07-29T14:19:16.908Z,33.21
2022-07-29T14:21:43.361Z,32.34
2022-07-29T14:24:17.931Z,32.72
2022-07-29T14:26:49.531Z,33.10
2022-07-29T14:29:15.963Z,32.66
2022-07-29T14:31:43.974Z,32.71
2022-07-29T14:34:10.601Z,32.32
2022-07-29T14:36:37.026Z,32.35
2022-07-29T14:39:03.496Z,33.27
2022-07-29T14:41:30.494Z,33.59
2022-07-29T14:43:56.934Z,33.33
2022-07-29T14:46:23.377Z,33.47
2022-07-29T14:48:49.842Z,33.46
2022-07-29T14:51:16.480Z,33.03
2022-07-29T14:53:42.884Z,32.25
2022-07-29T14:56:34.197Z,32.28
2022-07-29T14:58:55.879Z,32.66
2022-07-29T15:01:22.433Z,32.12
2022-07-29T15:03:48.932Z,32.70
2022-07-29T15:06:15.574Z,33.29
2022-07-29T15:08:41.981Z,33.81
2022-07-29T15:11:08.708Z,33.17
2022-07-29T15:13:35.537Z,33.44
2022-07-29T15:16:01.948Z,32.98
2022-07-29T15:18:28.349Z,33.00
2022-07-29T15:20:54.771Z,32.75
2022-07-29T15:23:21.217Z,32.87
2022-07-29T15:25:47.768Z,33.01
2022-07-29T15:28:14.191Z,33.19
2022-07-29T15:30:43.389Z,33.04
2022-07-29T15:33:10.382Z,32.47
2022-07-29T15:35:40.278Z,31.83
2022-07-29T15:38:07.591Z,31.05
2022-07-29T15:40:34.228Z,31.18
2022-07-29T15:43:06.367Z,31.03
2022-07-29T15:45:40.388Z,30.94
2022-07-29T15:48:09.170Z,31.62
2022-07-29T15:50:35.609Z,31.02
2022-07-29T15:53:03.217Z,30.15
2022-07-29T15:55:29.711Z,30.13
2022-07-29T15:58:00.285Z,30.22
2022-07-29T16:00:27.081Z,31.04
2022-07-29T16:02:53.534Z,31.51
2022-07-29T16:05:19.975Z,31.80
2022-07-29T16:07:46.465Z,30.71
2022-07-29T16:10:12.921Z,30.21
2022-07-29T16:12:39.346Z,29.84
2022-07-29T16:15:09.919Z,30.04
2022-07-29T16:17:37.809Z,30.55
2022-07-29T16:20:05.767Z,31.19
2022-07-29T16:22:32.277Z,31.67
2022-07-29T16:24:58.935Z,31.53
2022-07-29T16:27:35.465Z,31.50
2022-07-29T16:30:05.798Z,31.69
2022-07-29T16:32:32.238Z,31.11
2022-07-29T16:34:58.700Z,31.55
2022-07-29T16:37:25.109Z,31.55
2022-07-29T16:39:55.342Z,32.21
2022-07-29T16:42:44.256Z,32.16
2022-07-29T16:45:10.997Z,31.53
2022-07-29T16:47:37.445Z,31.94
2022-07-29T16:50:04.732Z,31.37
2022-07-29T16:52:31.212Z,31.19
2022-07-29T16:54:57.646Z,31.29
2022-07-29T16:57:24.348Z,30.70
2022-07-29T16:59:51.685Z,30.55
2022-07-29T17:02:18.302Z,29.62
2022-07-29T17:04:44.742Z,29.45
2022-07-29T17:07:11.578Z,29.16
2022-07-29T17:09:38.059Z,28.79
2022-07-29T17:12:04.851Z,28.67
2022-07-29T17:14:32.056Z,27.86
2022-07-29T17:17:01.951Z,27.83
2022-07-29T17:19:32.173Z,27.62
2022-07-29T17:22:08.922Z,27.38
2022-07-29T17:24:37.051Z,27.16
2022-07-29T17:27:05.081Z,27.15
2022-07-29T17:29:31.539Z,26.74
2022-07-29T17:31:59.392Z,26.43
2022-07-29T17:34:25.808Z,26.49
2022-07-29T17:36:52.471Z,26.36
2022-07-29T17:39:19.027Z,26.48
2022-07-29T17:41:46.737Z,26.31
2022-07-29T17:44:13.488Z,26.27
2022-07-29T17:46:40.640Z,26.19
2022-07-29T17:49:07.227Z,26.03
2022-07-29T17:51:33.737Z,26.20
2022-07-29T17:54:00.170Z,26.30
2022-07-29T17:56:26.632Z,25.94
2022-07-29T17:58:53.412Z,25.76
2022-07-29T18:01:19.983Z,25.85
2022-07-29T18:03:46.961Z,25.56
2022-07-29T18:06:16.780Z,25.72
2022-07-29T18:08:47.346Z,25.21
2022-07-29T18:11:14.911Z,25.55
2022-07-29T18:13:41.625Z,25.40
2022-07-29T18:16:09.130Z,25.45
2022-07-29T18:18:38.713Z,25.27
2022-07-29T18:21:05.131Z,25.34
2022-07-29T18:23:31.865Z,25.10
2022-07-29T18:25:58.360Z,25.24
2022-07-29T18:28:25.620Z,25.19
2022-07-29T18:30:52.785Z,25.12
2022-07-29T18:33:21.595Z,25.02
2022-07-29T18:35:49.853Z,24.58
2022-07-29T18:38:16.721Z,24.33
2022-07-29T18:40:44.442Z,24.48
2022-07-29T18:43:11.300Z,24.21
2022-07-29T18:45:39.592Z,24.06
2022-07-29T18:48:08.350Z,23.91
2022-07-29T18:50:40.008Z,23.70
2022-07-29T18:53:06.820Z,23.60
2022-07-29T18:55:33.269Z,23.38
2022-07-29T18:57:59.729Z,23.28
2022-07-29T19:00:26.552Z,23.37
2022-07-29T19:02:53.453Z,23.36
2022-07-29T19:05:20.395Z,23.39
2022-07-29T19:07:46.833Z,23.13
2022-07-29T19:10:13.561Z,23.12
2022-07-29T19:12:40.021Z,23.04
2022-07-29T19:15:07.556Z,22.91
2022-07-29T19:17:34.029Z,22.93
2022-07-29T19:20:00.457Z,22.87
2022-07-29T19:22:26.988Z,22.78
2022-07-29T19:24:53.417Z,22.67
2022-07-29T19:27:19.983Z,22.55
2022-07-29T19:29:46.407Z,22.59
2022-07-29T19:32:13.609Z,22.41
2022-07-29T19:35:10.073Z,22.38
2022-07-29T19:37:37.250Z,22.29
2022-07-29T19:40:04.333Z,22.13
2022-07-29T19:42:30.772Z,22.21
2022-07-29T19:44:57.167Z,22.09
2022-07-29T19:47:23.622Z,21.97
2022-07-29T19:49:50.034Z,21.94
2022-07-29T19:52:16.449Z,21.91
2022-07-29T19:54:43.042Z,21.91
2022-07-29T19:57:09.678Z,21.77
2022-07-29T19:59:38.629Z,21.74
2022-07-29T20:02:05.449Z,21.71
2022-07-29T20:04:32.016Z,21.53
2022-07-29T20:07:01.711Z,21.37
2022-07-29T20:09:28.580Z,21.37
2022-07-29T20:11:55.030Z,21.49
2022-07-29T20:14:23.880Z,21.37
2022-07-29T20:16:50.926Z,21.32
2022-07-29T20:19:17.378Z,21.26
2022-07-29T20:21:43.956Z,21.21
2022-07-29T20:24:12.936Z,21.20
2022-07-29T20:26:39.400Z,21.31
2022-07-29T20:29:05.874Z,21.00
2022-07-29T20:31:32.841Z,21.21
2022-07-29T20:34:00.273Z,21.06
2022-07-29T20:36:27.414Z,20.91
2022-07-29T20:38:54.887Z,21.14
2022-07-29T20:41:21.642Z,20.99
2022-07-29T20:43:49.792Z,21.09
2022-07-29T20:46:16.637Z,21.02
2022-07-29T20:48:43.264Z,20.86
2022-07-29T20:51:09.739Z,20.96
2022-07-29T20:53:39.792Z,20.70
2022-07-29T20:56:07.446Z,20.85
2022-07-29T20:58:36.041Z,20.87
2022-07-29T21:01:03.085Z,20.88
2022-07-29T21:03:29.644Z,20.88
2022-07-29T21:05:56.388Z,20.82
2022-07-29T21:08:22.833Z,20.59
2022-07-29T21:10:49.245Z,20.45
2022-07-29T21:13:16.554Z,20.32
2022-07-29T21:15:46.117Z,20.19
2022-07-29T21:18:30.045Z,20.37
2022-07-29T21:20:58.200Z,20.41
2022-07-29T21:23:25.499Z,20.50
2022-07-29T21:25:52.449Z,20.36
2022-07-29T21:28:36.763Z,20.41
2022-07-29T21:31:05.696Z,20.42
2022-07-29T21:33:33.412Z,20.41
2022-07-29T21:36:26.739Z,20.41
2022-07-29T21:38:49.542Z,20.34
2022-07-29T21:41:15.983Z,20.27
2022-07-29T21:43:42.462Z,20.27
2022-07-29T21:46:09.396Z,20.21
2022-07-29T21:48:35.940Z,20.30
2022-07-29T21:51:02.371Z,20.25
2022-07-29T21:53:28.811Z,20.29
2022-07-29T21:55:57.259Z,19.97
2022-07-29T21:58:24.514Z,20.11
2022-07-29T22:00:50.966Z,20.08
2022-07-29T22:03:17.398Z,20.06
2022-07-29T22:05:44.960Z,20.07
2022-07-29T22:08:11.454Z,20.03
2022-07-29T22:10:37.891Z,19.88
2022-07-29T22:13:04.423Z,19.88
2022-07-29T22:15:31.369Z,19.81
2022-07-29T22:17:57.832Z,19.77
2022-07-29T22:20:24.636Z,19.77
2022-07-29T22:22:51.116Z,19.75
2022-07-29T22:25:17.795Z,19.49
2022-07-29T22:27:45.328Z,19.43
2022-07-29T22:30:12.384Z,19.44
2022-07-29T22:32:38.828Z,19.53
2022-07-29T22:35:05.519Z,19.60
2022-07-29T22:37:32.009Z,19.45
2022-07-29T22:39:58.417Z,19.46
2022-07-29T22:42:25.485Z,19.53
2022-07-29T22:44:51.875Z,19.21
2022-07-29T22:47:18.276Z,19.31
2022-07-29T22:50:05.290Z,19.21
2022-07-29T22:52:31.775Z,19.15
2022-07-29T22:54:58.219Z,19.10
2022-07-29T22:57:24.740Z,19.13
2022-07-29T22:59:51.570Z,19.12
2022-07-29T23:02:18.058Z,19.09
2022-07-29T23:04:44.461Z,18.70
2022-07-29T23:07:10.887Z,18.82
2022-07-29T23:09:37.336Z,18.78
2022-07-29T23:12:03.881Z,18.68
2022-07-29T23:14:30.304Z,18.60
2022-07-29T23:16:56.756Z,18.69
2022-07-29T23:19:23.272Z,18.59
2022-07-29T23:21:49.676Z,18.52
2022-07-29T23:24:16.088Z,18.59
2022-07-29T23:26:42.506Z,18.56
2022-07-29T23:29:08.975Z,18.52
2022-07-29T23:31:36.020Z,18.50
2022-07-29T23:34:08.393Z,18.42
2022-07-29T23:36:34.808Z,18.42
2022-07-29T23:39:01.235Z,18.30
2022-07-29T23:41:31.326Z,18.40
2022-07-29T23:43:57.873Z,18.36
2022-07-29T23:46:24.359Z,18.26
2022-07-29T23:48:50.902Z,18.14
2022-07-29T23:51:17.368Z,18.15
2022-07-29T23:53:53.840Z,18.08
2022-07-29T23:56:21.014Z,17.74
2022-07-29T23:58:47.477Z,17.98
